createdAt,value
2019-05-09T00:00:06.274Z,43.58
2019-05-09T00:02:40.070Z,43.62
2019-05-09T00:05:13.810Z,43.60
2019-05-09T00:07:46.477Z,43.61
2019-05-09T00:10:19.061Z,43.60
2019-05-09T00:12:51.426Z,43.59
2019-05-09T00:15:24.254Z,43.57
2019-05-09T00:17:56.522Z,43.53
2019-05-09T00:20:46.382Z,43.51
2019-05-09T00:23:18.899Z,43.51
2019-05-09T00:25:53.664Z,43.51
2019-05-09T00:28:27.109Z,43.51
2019-05-09T00:31:06.558Z,43.48
2019-05-09T00:33:39.713Z,43.48
2019-05-09T00:36:13.971Z,43.48
2019-05-09T00:38:46.548Z,43.50
2019-05-09T00:41:18.992Z,43.50
2019-05-09T00:43:57.165Z,43.50
2019-05-09T00:46:50.816Z,43.54
2019-05-09T00:49:24.826Z,43.57
2019-05-09T00:51:57.091Z,43.61
2019-05-09T00:54:29.253Z,43.66
2019-05-09T00:57:03.848Z,43.71
2019-05-09T00:59:36.170Z,43.72
2019-05-09T01:02:08.689Z,43.72
2019-05-09T01:04:41.033Z,43.68
2019-05-09T01:07:13.973Z,43.66
2019-05-09T01:09:46.301Z,43.65
2019-05-09T01:12:18.641Z,43.69
2019-05-09T01:14:50.819Z,43.74
2019-05-09T01:17:24.097Z,43.72
2019-05-09T01:19:57.133Z,43.74
2019-05-09T01:22:29.390Z,43.72
2019-05-09T01:25:04.018Z,43.73
2019-05-09T01:27:35.965Z,43.70
2019-05-09T01:30:09.458Z,43.70
2019-05-09T01:33:03.420Z,43.72
2019-05-09T01:35:34.884Z,43.69
2019-05-09T01:38:07.729Z,43.71
2019-05-09T01:40:40.049Z,43.75
2019-05-09T01:43:13.859Z,43.81
2019-05-09T01:45:47.175Z,43.81
2019-05-09T01:48:19.695Z,43.83
2019-05-09T01:50:53.769Z,43.79
2019-05-09T01:53:30.380Z,43.79
2019-05-09T01:56:03.742Z,43.80
2019-05-09T01:58:36.620Z,43.81
2019-05-09T02:01:10.552Z,43.83
2019-05-09T02:03:44.310Z,43.83
2019-05-09T02:06:16.509Z,43.80
2019-05-09T02:08:48.962Z,43.78
2019-05-09T02:11:23.634Z,43.79
2019-05-09T02:13:55.326Z,43.80
2019-05-09T02:16:38.930Z,43.79
2019-05-09T02:19:35.675Z,43.84
2019-05-09T02:22:26.498Z,43.86
2019-05-09T02:24:59.058Z,43.91
2019-05-09T02:27:33.217Z,43.94
2019-05-09T02:30:06.236Z,43.95
2019-05-09T02:32:39.742Z,43.94
2019-05-09T02:35:12.480Z,43.94
2019-05-09T02:37:44.766Z,43.92
2019-05-09T02:40:18.792Z,43.89
2019-05-09T02:42:51.142Z,43.90
2019-05-09T02:45:28.288Z,43.90
2019-05-09T02:47:59.381Z,43.92
2019-05-09T02:50:31.729Z,43.92
2019-05-09T02:53:03.951Z,43.92
2019-05-09T02:55:38.695Z,43.90
2019-05-09T02:58:11.756Z,43.89
2019-05-09T03:01:00.175Z,43.87
2019-05-09T03:03:35.277Z,43.84
2019-05-09T03:06:09.126Z,43.86
2019-05-09T03:08:41.333Z,43.89
2019-05-09T03:11:13.724Z,43.90
2019-05-09T03:13:49.357Z,43.92
2019-05-09T03:16:19.920Z,43.95
2019-05-09T03:18:52.202Z,44.00
2019-05-09T03:21:33.149Z,44.01
2019-05-09T03:24:05.444Z,44.03
2019-05-09T03:26:39.869Z,44.06
2019-05-09T03:29:29.433Z,44.07
2019-05-09T03:32:01.932Z,44.06
2019-05-09T03:34:34.246Z,44.10
2019-05-09T03:37:08.483Z,44.13
2019-05-09T03:39:40.717Z,44.18
2019-05-09T03:42:12.923Z,44.20
2019-05-09T03:44:47.534Z,44.24
2019-05-09T03:47:24.963Z,44.28
2019-05-09T03:50:17.863Z,44.30
2019-05-09T03:52:50.491Z,44.33
2019-05-09T03:55:28.315Z,44.42
2019-05-09T03:58:20.484Z,44.45
2019-05-09T04:00:53.343Z,44.42
2019-05-09T04:03:27.495Z,44.43
2019-05-09T04:06:02.847Z,44.42
2019-05-09T04:08:33.519Z,44.41
2019-05-09T04:11:08.379Z,44.44
2019-05-09T04:13:45.102Z,44.45
2019-05-09T04:16:19.132Z,44.46
2019-05-09T04:18:52.040Z,44.43
2019-05-09T04:21:24.461Z,44.44
2019-05-09T04:23:58.427Z,44.45
2019-05-09T04:26:39.841Z,44.42
2019-05-09T04:29:12.111Z,44.44
2019-05-09T04:31:44.315Z,44.44
2019-05-09T04:34:18.301Z,44.44
2019-05-09T04:36:50.634Z,44.45
2019-05-09T04:39:24.104Z,44.44
2019-05-09T04:42:03.014Z,44.40
2019-05-09T04:44:43.665Z,44.39
2019-05-09T04:47:17.351Z,44.38
2019-05-09T04:49:49.675Z,44.36
2019-05-09T04:52:22.277Z,44.38
2019-05-09T04:54:54.852Z,44.32
2019-05-09T04:57:27.904Z,44.32
2019-05-09T05:00:00.256Z,44.14
2019-05-09T05:02:51.086Z,43.81
2019-05-09T05:05:23.487Z,43.50
2019-05-09T05:07:57.326Z,43.05
2019-05-09T05:10:29.854Z,42.77
2019-05-09T05:13:01.873Z,42.52
2019-05-09T05:15:34.168Z,42.33
2019-05-09T05:18:08.476Z,42.07
2019-05-09T05:20:41.002Z,41.85
2019-05-09T05:23:19.632Z,41.60
2019-05-09T05:25:51.971Z,41.44
2019-05-09T05:28:24.202Z,41.33
2019-05-09T05:30:58.224Z,41.26
2019-05-09T05:33:53.886Z,41.30
2019-05-09T05:36:27.985Z,41.33
2019-05-09T05:39:00.380Z,41.41
2019-05-09T05:41:32.871Z,41.45
2019-05-09T05:44:05.116Z,41.54
2019-05-09T05:47:08.740Z,41.47
2019-05-09T05:49:42.371Z,41.31
2019-05-09T05:52:18.534Z,40.98
2019-05-09T05:54:50.612Z,40.90
2019-05-09T05:57:22.918Z,40.85
2019-05-09T05:59:55.128Z,40.75
2019-05-09T06:02:28.193Z,40.86
2019-05-09T06:05:00.407Z,41.04
2019-05-09T06:07:32.812Z,41.19
2019-05-09T06:10:05.050Z,41.27
2019-05-09T06:12:38.108Z,41.50
2019-05-09T06:15:10.696Z,41.73
2019-05-09T06:17:42.937Z,41.80
2019-05-09T06:20:17.716Z,41.71
2019-05-09T06:22:50.293Z,41.42
2019-05-09T06:25:22.598Z,41.32
2019-05-09T06:27:54.867Z,41.17
2019-05-09T06:30:31.633Z,40.98
2019-05-09T06:33:05.117Z,40.72
2019-05-09T06:35:38.043Z,40.49
2019-05-09T06:38:10.240Z,40.38
2019-05-09T06:40:42.601Z,40.35
2019-05-09T06:43:28.991Z,40.29
2019-05-09T06:46:18.093Z,40.46
2019-05-09T06:48:49.740Z,40.63
2019-05-09T06:51:22.050Z,40.67
2019-05-09T06:53:54.628Z,40.47
2019-05-09T06:56:28.340Z,40.38
2019-05-09T06:59:00.625Z,40.24
2019-05-09T07:01:52.076Z,40.15
2019-05-09T07:04:29.497Z,40.10
2019-05-09T07:07:09.047Z,40.15
2019-05-09T07:09:53.288Z,40.21
2019-05-09T07:12:27.397Z,40.14
2019-05-09T07:14:59.872Z,40.25
2019-05-09T07:17:32.341Z,40.21
2019-05-09T07:20:04.647Z,40.08
2019-05-09T07:22:48.084Z,39.77
2019-05-09T07:25:47.701Z,39.78
2019-05-09T07:28:20.025Z,39.44
2019-05-09T07:31:20.355Z,39.20
2019-05-09T07:33:58.719Z,39.09
2019-05-09T07:36:31.742Z,38.95
2019-05-09T07:39:04.523Z,38.94
2019-05-09T07:41:38.386Z,38.83
2019-05-09T07:44:11.070Z,38.70
2019-05-09T07:46:58.072Z,38.60
2019-05-09T07:49:31.901Z,38.38
2019-05-09T07:52:06.694Z,38.26
2019-05-09T07:54:38.359Z,37.94
2019-05-09T07:57:10.646Z,37.65
2019-05-09T07:59:43.204Z,37.47
2019-05-09T08:02:17.597Z,37.35
2019-05-09T08:04:49.583Z,37.17
2019-05-09T08:07:22.334Z,37.11
2019-05-09T08:09:54.670Z,37.10
2019-05-09T08:12:28.427Z,37.27
2019-05-09T08:15:10.360Z,37.37
2019-05-09T08:17:34.960Z,37.59
2019-05-09T08:20:08.222Z,37.64
2019-05-09T08:22:46.105Z,37.82
2019-05-09T08:25:14.609Z,37.86
2019-05-09T08:27:49.078Z,37.92
2019-05-09T08:30:22.634Z,37.88
2019-05-09T08:32:55.186Z,38.16
2019-05-09T08:35:28.086Z,38.23
2019-05-09T08:38:00.376Z,38.23
2019-05-09T08:40:32.664Z,38.15
2019-05-09T08:43:07.395Z,38.33
2019-05-09T08:45:39.300Z,38.46
2019-05-09T08:48:11.887Z,38.46
2019-05-09T08:50:54.654Z,38.54
2019-05-09T08:53:27.580Z,38.65
2019-05-09T08:56:00.104Z,38.88
2019-05-09T08:58:32.294Z,38.93
2019-05-09T09:01:04.744Z,38.99
2019-05-09T09:03:37.719Z,39.04
2019-05-09T09:06:10.350Z,38.98
2019-05-09T09:08:42.568Z,38.89
2019-05-09T09:11:14.888Z,38.96
2019-05-09T09:13:48.313Z,39.02
2019-05-09T09:16:22.613Z,39.01
2019-05-09T09:18:55.101Z,39.00
2019-05-09T09:21:28.567Z,38.93
2019-05-09T09:24:01.358Z,38.93
2019-05-09T09:26:33.838Z,38.85
2019-05-09T09:29:08.315Z,38.86
2019-05-09T09:31:40.169Z,38.87
2019-05-09T09:34:12.430Z,38.87
2019-05-09T09:36:44.716Z,38.79
2019-05-09T09:39:18.501Z,38.73
2019-05-09T09:41:51.706Z,38.71
2019-05-09T09:44:24.466Z,38.79
2019-05-09T09:46:58.118Z,38.81
2019-05-09T09:49:30.497Z,38.85
2019-05-09T09:52:04.154Z,38.93
2019-05-09T09:54:38.560Z,38.96
2019-05-09T09:57:10.770Z,39.06
2019-05-09T10:00:01.563Z,39.09
2019-05-09T10:02:37.822Z,39.03
2019-05-09T10:05:51.213Z,38.94
2019-05-09T10:08:24.049Z,38.82
2019-05-09T10:10:59.011Z,38.86
2019-05-09T10:13:30.250Z,39.09
2019-05-09T10:16:32.637Z,39.28
2019-05-09T10:19:12.124Z,39.38
2019-05-09T10:21:48.577Z,39.37
2019-05-09T10:24:20.938Z,39.37
2019-05-09T10:27:08.944Z,39.34
2019-05-09T10:29:41.896Z,39.39
2019-05-09T10:32:15.181Z,39.55
2019-05-09T10:34:48.916Z,39.65
2019-05-09T10:37:21.447Z,39.72
2019-05-09T10:39:53.992Z,39.70
2019-05-09T10:42:44.873Z,39.76
2019-05-09T10:45:33.523Z,39.85
2019-05-09T10:48:08.172Z,39.95
2019-05-09T10:50:44.252Z,39.99
2019-05-09T10:53:13.938Z,39.89
2019-05-09T10:55:48.082Z,39.75
2019-05-09T10:58:23.573Z,39.71
2019-05-09T11:00:54.045Z,39.66
2019-05-09T11:03:26.329Z,39.59
2019-05-09T11:05:58.513Z,39.62
2019-05-09T11:08:30.879Z,39.65
2019-05-09T11:11:05.959Z,39.69
2019-05-09T11:13:38.992Z,39.65
2019-05-09T11:16:11.863Z,39.61
2019-05-09T11:18:44.242Z,39.55
2019-05-09T11:21:18.872Z,39.52
2019-05-09T11:23:50.477Z,39.50
2019-05-09T11:26:22.791Z,39.34
2019-05-09T11:28:55.142Z,39.25
2019-05-09T11:31:29.606Z,39.19
2019-05-09T11:34:01.334Z,39.16
2019-05-09T11:36:33.607Z,39.22
2019-05-09T11:39:10.606Z,39.14
2019-05-09T11:41:41.674Z,38.81
2019-05-09T11:44:14.011Z,38.80
2019-05-09T11:46:47.739Z,38.66
2019-05-09T11:49:20.124Z,38.77
2019-05-09T11:51:52.332Z,38.87
2019-05-09T11:54:24.758Z,38.95
2019-05-09T11:56:57.634Z,38.93
2019-05-09T11:59:30.059Z,38.93
2019-05-09T12:02:02.282Z,38.95
2019-05-09T12:04:34.344Z,38.94
2019-05-09T12:07:07.931Z,38.82
2019-05-09T12:09:40.259Z,38.79
2019-05-09T12:12:12.643Z,38.71
2019-05-09T12:14:44.853Z,38.63
2019-05-09T12:17:19.497Z,38.59
2019-05-09T12:19:51.235Z,38.68
2019-05-09T12:22:23.632Z,38.71
2019-05-09T12:24:55.916Z,38.65
2019-05-09T12:27:31.311Z,38.68
2019-05-09T12:30:03.352Z,38.62
2019-05-09T12:32:38.340Z,38.65
2019-05-09T12:35:10.222Z,38.59
2019-05-09T12:37:42.405Z,38.59
2019-05-09T12:40:14.778Z,38.60
2019-05-09T12:42:50.042Z,38.67
2019-05-09T12:45:21.101Z,38.63
2019-05-09T12:48:06.129Z,38.75
2019-05-09T12:50:29.417Z,38.79
2019-05-09T12:53:01.296Z,38.80
2019-05-09T12:55:33.531Z,38.74
2019-05-09T12:58:09.787Z,38.64
2019-05-09T13:00:41.609Z,38.62
2019-05-09T13:03:17.785Z,38.62
2019-05-09T13:05:49.523Z,38.46
2019-05-09T13:08:21.893Z,38.53
2019-05-09T13:10:54.158Z,38.52
2019-05-09T13:13:30.200Z,38.57
2019-05-09T13:16:17.784Z,38.61
2019-05-09T13:19:04.564Z,38.54
2019-05-09T13:21:38.944Z,38.51
2019-05-09T13:24:11.513Z,38.63
2019-05-09T13:26:47.801Z,38.68
2019-05-09T13:29:19.612Z,38.74
2019-05-09T13:31:52.178Z,38.79
2019-05-09T13:34:24.439Z,38.93
2019-05-09T13:36:59.069Z,39.02
2019-05-09T13:39:30.821Z,39.17
2019-05-09T13:42:03.015Z,39.21
2019-05-09T13:44:40.620Z,39.25
2019-05-09T13:47:10.903Z,39.35
2019-05-09T13:49:43.636Z,39.43
2019-05-09T13:52:17.898Z,39.44
2019-05-09T13:54:50.400Z,39.54
2019-05-09T13:57:22.619Z,39.60
2019-05-09T13:59:54.733Z,39.69
2019-05-09T14:02:29.172Z,39.69
2019-05-09T14:05:00.801Z,39.70
2019-05-09T14:07:33.077Z,39.72
2019-05-09T14:10:08.306Z,39.75
2019-05-09T14:12:39.961Z,39.76
2019-05-09T14:15:12.460Z,39.73
2019-05-09T14:17:50.909Z,39.73
2019-05-09T14:20:19.425Z,39.71
2019-05-09T14:22:51.715Z,39.68
2019-05-09T14:25:23.732Z,39.67
2019-05-09T14:27:58.024Z,39.67
2019-05-09T14:30:35.941Z,39.62
2019-05-09T14:33:08.385Z,39.61
2019-05-09T14:35:40.827Z,39.60
2019-05-09T14:38:13.213Z,39.60
2019-05-09T14:40:47.024Z,39.60
2019-05-09T14:43:19.297Z,39.58
2019-05-09T14:45:51.557Z,39.60
2019-05-09T14:48:23.980Z,39.65
2019-05-09T14:50:58.147Z,39.66
2019-05-09T14:53:30.461Z,39.67
2019-05-09T14:56:02.865Z,39.65
2019-05-09T14:58:35.122Z,39.67
2019-05-09T15:01:08.579Z,39.68
2019-05-09T15:03:41.019Z,39.69
2019-05-09T15:06:13.147Z,39.74
2019-05-09T15:08:45.289Z,39.78
2019-05-09T15:11:18.217Z,39.84
2019-05-09T15:13:50.540Z,39.85
2019-05-09T15:16:22.830Z,39.82
2019-05-09T15:18:55.189Z,39.76
2019-05-09T15:21:27.433Z,39.72
2019-05-09T15:23:59.677Z,39.68
2019-05-09T15:26:31.958Z,39.69
2019-05-09T15:29:04.445Z,39.68
2019-05-09T15:31:39.099Z,39.68
2019-05-09T15:34:11.375Z,39.68
2019-05-09T15:36:43.542Z,39.69
2019-05-09T15:39:18.178Z,39.68
2019-05-09T15:41:49.755Z,39.69
2019-05-09T15:44:22.033Z,39.73
2019-05-09T15:46:59.743Z,39.78
2019-05-09T15:49:32.256Z,39.78
2019-05-09T15:52:04.467Z,39.80
2019-05-09T15:54:38.677Z,39.83
2019-05-09T15:57:10.580Z,39.86
2019-05-09T15:59:42.891Z,39.85
2019-05-09T16:02:15.328Z,39.85
2019-05-09T16:04:47.602Z,39.81
2019-05-09T16:07:20.000Z,39.81
2019-05-09T16:09:52.340Z,39.80
2019-05-09T16:12:27.573Z,39.81
2019-05-09T16:14:58.826Z,39.84
2019-05-09T16:17:31.173Z,39.87
2019-05-09T16:20:03.345Z,39.86
2019-05-09T16:22:35.491Z,39.86
2019-05-09T16:25:08.131Z,39.89
2019-05-09T16:27:40.312Z,39.89
2019-05-09T16:30:13.718Z,39.90
2019-05-09T16:32:48.069Z,39.90
2019-05-09T16:35:19.985Z,39.87
2019-05-09T16:38:01.598Z,39.88
2019-05-09T16:40:27.944Z,39.92
2019-05-09T16:43:00.407Z,39.92
2019-05-09T16:45:33.012Z,39.93
2019-05-09T16:48:10.950Z,39.96
2019-05-09T16:50:56.028Z,39.98
2019-05-09T16:53:13.588Z,40.00
2019-05-09T16:55:45.914Z,40.03
2019-05-09T16:58:18.845Z,40.06
2019-05-09T17:00:53.092Z,40.08
2019-05-09T17:03:25.575Z,40.07
2019-05-09T17:05:59.261Z,40.10
2019-05-09T17:08:31.681Z,40.10
2019-05-09T17:11:03.954Z,40.12
2019-05-09T17:13:36.564Z,40.15
2019-05-09T17:16:08.872Z,40.20
2019-05-09T17:18:41.042Z,40.20
2019-05-09T17:21:34.676Z,40.17
2019-05-09T17:24:09.201Z,40.21
2019-05-09T17:26:41.476Z,40.23
2019-05-09T17:29:13.929Z,40.23
2019-05-09T17:31:48.710Z,40.24
2019-05-09T17:34:20.373Z,40.27
2019-05-09T17:36:52.566Z,40.26
2019-05-09T17:39:24.742Z,40.26
2019-05-09T17:41:58.266Z,40.29
2019-05-09T17:44:30.667Z,40.28
2019-05-09T17:47:02.863Z,40.31
2019-05-09T17:49:37.341Z,40.29
2019-05-09T17:52:09.014Z,40.29
2019-05-09T17:54:44.402Z,40.28
2019-05-09T17:57:19.018Z,40.27
2019-05-09T17:59:51.494Z,40.27
2019-05-09T18:02:23.696Z,40.31
2019-05-09T18:04:58.129Z,40.31
2019-05-09T18:07:29.866Z,40.33
2019-05-09T18:10:03.307Z,40.34
2019-05-09T18:12:35.544Z,40.40
2019-05-09T18:15:08.269Z,40.43
2019-05-09T18:17:40.455Z,40.49
2019-05-09T18:20:12.920Z,40.53
2019-05-09T18:22:47.736Z,40.54
2019-05-09T18:25:19.316Z,40.57
2019-05-09T18:27:51.870Z,40.59
2019-05-09T18:30:24.383Z,40.62
2019-05-09T18:33:11.067Z,40.63
2019-05-09T18:35:43.390Z,40.64
2019-05-09T18:38:28.936Z,40.65
2019-05-09T18:41:01.107Z,40.61
2019-05-09T18:43:35.036Z,40.55
2019-05-09T18:46:08.342Z,40.50
2019-05-09T18:48:40.630Z,40.49
2019-05-09T18:51:12.926Z,40.45
2019-05-09T18:53:45.346Z,40.44
2019-05-09T18:56:17.808Z,40.44
2019-05-09T18:58:50.293Z,40.41
2019-05-09T19:01:22.272Z,40.42
2019-05-09T19:03:54.784Z,40.38
2019-05-09T19:06:26.988Z,40.37
2019-05-09T19:08:59.212Z,40.35
2019-05-09T19:11:31.973Z,40.37
2019-05-09T19:14:05.966Z,40.37
2019-05-09T19:16:51.675Z,40.36
2019-05-09T19:19:48.739Z,40.34
2019-05-09T19:22:22.718Z,40.37
2019-05-09T19:24:54.940Z,40.39
2019-05-09T19:27:27.107Z,40.39
2019-05-09T19:29:59.608Z,40.40
2019-05-09T19:32:32.000Z,40.41
2019-05-09T19:35:04.159Z,40.43
2019-05-09T19:37:36.415Z,40.40
2019-05-09T19:40:09.055Z,40.40
2019-05-09T19:42:41.235Z,40.43
2019-05-09T19:45:14.267Z,40.41
2019-05-09T19:47:46.430Z,40.38
2019-05-09T19:50:18.939Z,40.38
2019-05-09T19:52:51.196Z,40.38
2019-05-09T19:55:23.516Z,40.37
2019-05-09T19:57:55.749Z,40.38
2019-05-09T20:00:27.966Z,40.37
2019-05-09T20:03:00.387Z,40.37
2019-05-09T20:05:32.687Z,40.38
2019-05-09T20:08:04.928Z,40.36
2019-05-09T20:10:54.489Z,40.37
2019-05-09T20:13:37.797Z,40.37
2019-05-09T20:16:10.714Z,40.37
2019-05-09T20:18:43.344Z,40.37
2019-05-09T20:21:15.834Z,40.41
2019-05-09T20:23:48.094Z,40.43
2019-05-09T20:26:20.579Z,40.43
2019-05-09T20:28:52.787Z,40.42
2019-05-09T20:31:25.078Z,40.40
2019-05-09T20:33:57.258Z,40.42
2019-05-09T20:36:29.562Z,40.41
2019-05-09T20:39:02.025Z,40.39
2019-05-09T20:41:34.549Z,40.41
2019-05-09T20:44:08.403Z,40.42
2019-05-09T20:46:41.118Z,40.42
2019-05-09T20:49:14.248Z,40.42
2019-05-09T20:51:46.982Z,40.45
2019-05-09T20:54:21.428Z,40.50
2019-05-09T20:56:54.645Z,40.53
2019-05-09T20:59:27.447Z,40.56
2019-05-09T21:02:00.358Z,40.57
2019-05-09T21:04:33.101Z,40.58
2019-05-09T21:07:05.692Z,40.61
2019-05-09T21:09:38.089Z,40.66
2019-05-09T21:12:11.247Z,40.67
2019-05-09T21:14:44.108Z,40.66
2019-05-09T21:17:16.653Z,40.67
2019-05-09T21:19:49.212Z,40.69
2019-05-09T21:22:21.626Z,40.71
2019-05-09T21:24:54.018Z,40.76
2019-05-09T21:27:26.483Z,40.81
2019-05-09T21:29:58.875Z,40.86
2019-05-09T21:32:31.787Z,40.90
2019-05-09T21:35:04.174Z,40.94
2019-05-09T21:37:36.543Z,40.91
2019-05-09T21:40:09.778Z,40.87
2019-05-09T21:42:42.057Z,40.90
2019-05-09T21:45:14.564Z,40.91
2019-05-09T21:47:46.821Z,40.94
2019-05-09T21:50:19.377Z,40.97
2019-05-09T21:52:51.729Z,40.98
2019-05-09T21:55:24.267Z,40.99
2019-05-09T21:57:56.496Z,40.99
2019-05-09T22:00:34.931Z,40.99
2019-05-09T22:03:07.946Z,41.04
2019-05-09T22:05:40.317Z,41.06
2019-05-09T22:08:12.543Z,41.04
2019-05-09T22:10:44.982Z,41.07
2019-05-09T22:13:17.244Z,41.07
2019-05-09T22:15:49.440Z,41.06
2019-05-09T22:18:22.131Z,41.10
2019-05-09T22:20:54.726Z,41.11
2019-05-09T22:23:27.202Z,41.13
2019-05-09T22:25:59.415Z,41.13
2019-05-09T22:28:31.582Z,41.16
2019-05-09T22:31:04.212Z,41.18
2019-05-09T22:33:36.452Z,41.17
2019-05-09T22:36:08.843Z,41.18
2019-05-09T22:38:43.578Z,41.18
2019-05-09T22:41:15.029Z,41.22
2019-05-09T22:43:47.303Z,41.23
2019-05-09T22:46:19.459Z,41.22
2019-05-09T22:48:51.843Z,41.20
2019-05-09T22:55:15.062Z,41.24
2019-05-09T22:57:47.865Z,41.38
2019-05-09T23:00:20.243Z,41.46
2019-05-09T23:02:52.663Z,41.44
2019-05-09T23:05:25.028Z,41.41
2019-05-09T23:07:57.262Z,41.37
2019-05-09T23:10:29.863Z,41.35
2019-05-09T23:13:01.982Z,41.32
2019-05-09T23:15:34.416Z,41.30
2019-05-09T23:18:06.647Z,41.29
2019-05-09T23:20:50.856Z,41.31
2019-05-09T23:23:30.365Z,41.29
2019-05-09T23:26:02.662Z,41.30
2019-05-09T23:28:34.914Z,41.32
2019-05-09T23:31:10.978Z,41.31
2019-05-09T23:33:43.533Z,41.30
2019-05-09T23:36:15.924Z,41.30
2019-05-09T23:39:05.337Z,41.30
2019-05-09T23:41:40.346Z,41.32
2019-05-09T23:44:12.505Z,41.35
2019-05-09T23:46:44.767Z,41.35
2019-05-09T23:49:17.015Z,41.39
2019-05-09T23:51:50.083Z,41.40
2019-05-09T23:54:46.745Z,41.45
2019-05-09T23:57:32.413Z,41.49
